Time;durP1;ratioP1;P1;durP2;ratioP2;P2;SDS_P1;SDS_P2;PMS_P1;PMS_P2;Temp;Humidity;BMP_temperature;BMP_pressure;BME280_temperature;BME280_humidity;BME280_pressure;Samples;Min_cycle;Max_cycle;Signal;HPM_P1;HPM_P2
2022/09/13 00:01:12;;;;;;;3.20;3.00;;;;;;;;;;5076275;28;20704;-84
2022/09/13 00:03:40;;;;;;;2.65;2.45;;;;;;;;;;5076353;28;20295;-84
2022/09/13 00:06:09;;;;;;;3.00;2.80;;;;;;;;;;5076496;28;20193;-83
2022/09/13 00:08:38;;;;;;;3.10;2.83;;;;;;;;;;5076004;28;20201;-84
2022/09/13 00:11:06;;;;;;;2.75;2.55;;;;;;;;;;5076418;28;20197;-84
2022/09/13 00:13:34;;;;;;;2.95;2.72;;;;;;;;;;5075582;28;20203;-83
2022/09/13 00:16:03;;;;;;;3.38;3.13;;;;;;;;;;5076006;28;20207;-83
2022/09/13 00:18:31;;;;;;;4.45;2.72;;;;;;;;;;5075300;28;20669;-84
2022/09/13 00:21:07;;;;;;;2.90;2.70;;;;;;;;;;5075942;28;20284;-83
2022/09/13 00:23:34;;;;;;;2.90;2.70;;;;;;;;;;5075511;28;20853;-83
2022/09/13 00:26:12;;;;;;;3.58;3.28;;;;;;;;;;5075718;28;20215;-83
2022/09/13 00:28:40;;;;;;;2.55;2.35;;;;;;;;;;5075090;28;20204;-84
2022/09/13 00:31:09;;;;;;;2.88;2.67;;;;;;;;;;5075431;28;20201;-82
2022/09/13 00:33:37;;;;;;;4.05;3.22;;;;;;;;;;5075223;28;20200;-83
2022/09/13 00:36:06;;;;;;;2.50;2.30;;;;;;;;;;5075297;28;20215;-83
2022/09/13 00:38:36;;;;;;;2.92;2.72;;;;;;;;;;5074498;28;20201;-84
2022/09/13 00:41:05;;;;;;;2.65;2.45;;;;;;;;;;5074570;28;20219;-82
2022/09/13 00:43:47;;;;;;;3.15;2.83;;;;;;;;;;5075001;28;20576;-84
2022/09/13 00:46:22;;;;;;;2.20;2.10;;;;;;;;;;5074927;28;20189;-84
2022/09/13 00:48:53;;;;;;;3.25;3.00;;;;;;;;;;5075045;28;20203;-83
2022/09/13 00:51:21;;;;;;;2.88;2.58;;;;;;;;;;5075023;28;20215;-83
2022/09/13 00:53:51;;;;;;;3.45;3.22;;;;;;;;;;5074622;28;20207;-83
2022/09/13 00:56:23;;;;;;;2.53;2.35;;;;;;;;;;5061283;28;20684;-84
2022/09/13 00:58:57;;;;;;;2.50;2.33;;;;;;;;;;5041317;22;20770;-84
2022/09/13 01:01:29;;;;;;;2.35;2.25;;;;;;;;;;5020062;28;20223;-84
2022/09/13 01:03:56;;;;;;;3.13;2.90;;;;;;;;;;5019213;28;20223;-84
2022/09/13 01:06:31;;;;;;;2.80;2.60;;;;;;;;;;5019540;28;20290;-84
2022/09/13 01:09:02;;;;;;;2.20;2.10;;;;;;;;;;5020398;28;20219;-84
2022/09/13 01:11:38;;;;;;;2.60;2.40;;;;;;;;;;5018075;28;20242;-85
2022/09/13 01:14:08;;;;;;;2.72;2.53;;;;;;;;;;5014568;28;20290;-87
2022/09/13 01:16:35;;;;;;;3.22;2.97;;;;;;;;;;5014911;28;20202;-86
2022/09/13 01:19:03;;;;;;;3.17;2.97;;;;;;;;;;5014530;28;20257;-86
2022/09/13 01:22:19;;;;;;;2.50;2.28;;;;;;;;;;5014196;28;20246;-86
2022/09/13 01:25:36;;;;;;;2.85;2.60;;;;;;;;;;5014047;28;20298;-86
2022/09/13 01:28:18;;;;;;;3.05;2.85;;;;;;;;;;5011367;28;20244;-85
2022/09/13 01:30:54;;;;;;;3.67;2.70;;;;;;;;;;5014216;28;20202;-85
2022/09/13 01:33:39;;;;;;;3.30;3.00;;;;;;;;;;5014033;28;20220;-87
2022/09/13 01:36:33;;;;;;;2.97;2.78;;;;;;;;;;5013997;28;20293;-86
2022/09/13 01:39:04;;;;;;;2.58;2.40;;;;;;;;;;5014081;28;20314;-85
2022/09/13 01:41:52;;;;;;;3.00;2.80;;;;;;;;;;5014177;28;20206;-87
2022/09/13 01:44:30;;;;;;;2.95;2.50;;;;;;;;;;5013443;28;20268;-86
2022/09/13 01:47:06;;;;;;;2.45;2.25;;;;;;;;;;5013818;28;20564;-86
2022/09/13 01:49:42;;;;;;;2.72;2.53;;;;;;;;;;5013887;28;20213;-85
2022/09/13 01:52:17;;;;;;;3.25;3.05;;;;;;;;;;5013635;28;20210;-86
2022/09/13 01:54:52;;;;;;;3.35;2.92;;;;;;;;;;5014175;28;20187;-86
2022/09/13 01:57:25;;;;;;;3.30;3.10;;;;;;;;;;4994255;28;20571;-85
2022/09/13 01:59:55;;;;;;;3.30;3.10;;;;;;;;;;4994184;28;20215;-86
2022/09/13 02:02:29;;;;;;;2.72;2.45;;;;;;;;;;4994025;28;20200;-86
2022/09/13 02:05:03;;;;;;;2.95;2.75;;;;;;;;;;4994087;28;20203;-85
2022/09/13 02:07:33;;;;;;;3.05;2.83;;;;;;;;;;4993552;28;20242;-86
2022/09/13 02:10:09;;;;;;;3.00;2.80;;;;;;;;;;4993877;28;20242;-86
2022/09/13 02:12:38;;;;;;;2.75;2.30;;;;;;;;;;4993869;28;20641;-86
2022/09/13 02:15:11;;;;;;;2.72;2.53;;;;;;;;;;4993738;28;20298;-85
2022/09/13 02:17:43;;;;;;;3.38;3.08;;;;;;;;;;4993756;28;20307;-85
2022/09/13 02:20:16;;;;;;;3.15;2.95;;;;;;;;;;4993617;28;20207;-86
2022/09/13 02:22:46;;;;;;;3.67;3.28;;;;;;;;;;4993613;28;20192;-86
2022/09/13 02:25:16;;;;;;;2.30;2.20;;;;;;;;;;5000498;28;20206;-85
2022/09/13 02:27:45;;;;;;;2.45;2.25;;;;;;;;;;5032706;28;20219;-86
2022/09/13 02:30:14;;;;;;;3.28;2.97;;;;;;;;;;5032962;28;20284;-85
2022/09/13 02:32:47;;;;;;;3.67;3.30;;;;;;;;;;5033012;28;20225;-86
2022/09/13 02:35:19;;;;;;;2.47;2.28;;;;;;;;;;5032995;28;20289;-84
2022/09/13 02:38:05;;;;;;;2.42;2.30;;;;;;;;;;5032516;28;20308;-86
2022/09/13 02:40:38;;;;;;;2.80;2.60;;;;;;;;;;5032826;28;20201;-85
2022/09/13 02:43:11;;;;;;;3.80;3.40;;;;;;;;;;5032869;28;20206;-85
2022/09/13 02:45:46;;;;;;;3.50;3.20;;;;;;;;;;5032321;28;20762;-86
2022/09/13 02:48:22;;;;;;;4.85;3.60;;;;;;;;;;5032472;28;20222;-86
2022/09/13 02:50:58;;;;;;;3.03;2.83;;;;;;;;;;5032766;28;20212;-85
2022/09/13 02:53:32;;;;;;;3.22;2.92;;;;;;;;;;5032466;28;20198;-86
2022/09/13 02:56:10;;;;;;;3.88;3.58;;;;;;;;;;5032321;28;20228;-86
2022/09/13 02:58:44;;;;;;;3.25;3.03;;;;;;;;;;5032289;28;20232;-86
2022/09/13 03:01:12;;;;;;;3.10;2.90;;;;;;;;;;5032365;28;20208;-86
2022/09/13 03:03:41;;;;;;;4.32;3.17;;;;;;;;;;5032302;28;20700;-85
2022/09/13 03:06:09;;;;;;;3.45;2.90;;;;;;;;;;5032267;28;20336;-86
2022/09/13 03:08:36;;;;;;;2.97;2.63;;;;;;;;;;5031821;28;20648;-85
2022/09/13 03:11:17;;;;;;;2.70;2.50;;;;;;;;;;5032259;28;20301;-86
2022/09/13 03:14:12;;;;;;;3.10;2.90;;;;;;;;;;5032578;28;20206;-86
2022/09/13 03:17:01;;;;;;;2.80;2.60;;;;;;;;;;5029630;28;20204;-85
2022/09/13 03:19:46;;;;;;;2.83;2.50;;;;;;;;;;5032155;28;20204;-87
2022/09/13 03:22:30;;;;;;;2.70;2.50;;;;;;;;;;5036208;28;20209;-85
2022/09/13 03:25:07;;;;;;;2.30;2.20;;;;;;;;;;5036073;28;20316;-85
2022/09/13 03:27:39;;;;;;;2.20;2.05;;;;;;;;;;5035934;28;20240;-85
2022/09/13 03:30:09;;;;;;;2.20;2.00;;;;;;;;;;5036223;28;20198;-85
2022/09/13 03:32:43;;;;;;;3.10;2.80;;;;;;;;;;5036331;28;20204;-85
2022/09/13 03:35:22;;;;;;;2.78;2.58;;;;;;;;;;5035992;28;20198;-85
2022/09/13 03:37:57;;;;;;;3.30;3.00;;;;;;;;;;5035772;28;20221;-85
2022/09/13 03:40:36;;;;;;;2.65;2.45;;;;;;;;;;5035888;28;20193;-86
2022/09/13 03:43:08;;;;;;;2.72;2.53;;;;;;;;;;5035978;28;20213;-85
2022/09/13 03:45:41;;;;;;;2.50;2.30;;;;;;;;;;5036196;28;20389;-85
2022/09/13 03:48:11;;;;;;;3.00;2.22;;;;;;;;;;5035431;28;20639;-87
2022/09/13 03:50:40;;;;;;;2.42;2.30;;;;;;;;;;5036025;28;20206;-86
2022/09/13 03:53:11;;;;;;;2.17;2.00;;;;;;;;;;5035237;28;20207;-85
2022/09/13 03:55:42;;;;;;;3.13;2.78;;;;;;;;;;5035658;28;20210;-86
2022/09/13 03:58:12;;;;;;;2.20;2.10;;;;;;;;;;5035377;28;20726;-86
2022/09/13 04:00:40;;;;;;;2.65;2.35;;;;;;;;;;5035674;28;20200;-86
2022/09/13 04:03:08;;;;;;;2.72;2.53;;;;;;;;;;5034991;28;20202;-86
2022/09/13 04:05:35;;;;;;;1.88;1.77;;;;;;;;;;5035004;28;20272;-86
2022/09/13 04:08:06;;;;;;;3.15;2.83;;;;;;;;;;5034940;28;20230;-86
2022/09/13 04:10:35;;;;;;;2.60;2.40;;;;;;;;;;5035381;28;20206;-86
2022/09/13 04:13:02;;;;;;;3.00;2.80;;;;;;;;;;5035242;28;20644;-87
2022/09/13 04:15:30;;;;;;;3.50;3.20;;;;;;;;;;5035500;28;20698;-86
2022/09/13 04:17:58;;;;;;;2.60;2.40;;;;;;;;;;5034918;28;20222;-86
2022/09/13 04:20:26;;;;;;;2.60;2.40;;;;;;;;;;5035146;28;20290;-86
2022/09/13 04:22:54;;;;;;;2.38;2.28;;;;;;;;;;5034568;28;20202;-86
2022/09/13 04:25:23;;;;;;;1.83;1.73;;;;;;;;;;5034663;28;20226;-86
2022/09/13 04:27:55;;;;;;;2.38;2.17;;;;;;;;;;5034744;28;20237;-86
2022/09/13 04:30:22;;;;;;;1.90;1.80;;;;;;;;;;5035050;28;20199;-87
2022/09/13 04:32:50;;;;;;;2.95;2.75;;;;;;;;;;5034917;28;20199;-87
2022/09/13 04:35:18;;;;;;;3.35;3.10;;;;;;;;;;5034893;28;20581;-87
2022/09/13 04:37:46;;;;;;;3.33;3.08;;;;;;;;;;5034503;28;20222;-86
2022/09/13 04:40:14;;;;;;;3.17;2.90;;;;;;;;;;5034672;28;20714;-87
2022/09/13 04:42:44;;;;;;;3.55;3.25;;;;;;;;;;5034487;28;20289;-86
2022/09/13 04:45:12;;;;;;;3.35;3.15;;;;;;;;;;5035254;28;20615;-87
2022/09/13 04:47:40;;;;;;;2.45;2.30;;;;;;;;;;5034426;28;20309;-87
2022/09/13 04:50:08;;;;;;;2.80;2.60;;;;;;;;;;5038892;28;20705;-87
2022/09/13 04:52:36;;;;;;;2.83;2.63;;;;;;;;;;5035495;28;20289;-87
2022/09/13 04:55:04;;;;;;;5.47;4.05;;;;;;;;;;5034851;28;20638;-90
2022/09/13 04:57:31;;;;;;;3.22;2.92;;;;;;;;;;5034362;28;20677;-86
2022/09/13 05:00:00;;;;;;;3.13;2.92;;;;;;;;;;5034462;28;20209;-90
2022/09/13 05:02:27;;;;;;;4.70;4.30;;;;;;;;;;5034407;28;20198;-88
2022/09/13 05:04:55;;;;;;;2.45;2.25;;;;;;;;;;5034247;28;20226;-86
2022/09/13 05:07:22;;;;;;;2.70;2.50;;;;;;;;;;5034250;28;20719;-85
2022/09/13 05:09:50;;;;;;;2.80;2.60;;;;;;;;;;5034303;28;20623;-84
2022/09/13 05:12:17;;;;;;;3.53;3.22;;;;;;;;;;5034467;28;20198;-85
2022/09/13 05:14:45;;;;;;;3.65;3.35;;;;;;;;;;5033751;28;20286;-85
2022/09/13 05:17:14;;;;;;;3.75;3.45;;;;;;;;;;5033979;28;20205;-85
2022/09/13 05:19:41;;;;;;;3.50;3.20;;;;;;;;;;5034017;28;20285;-85
2022/09/13 05:22:09;;;;;;;3.45;3.15;;;;;;;;;;5034113;28;20290;-84
2022/09/13 05:24:36;;;;;;;3.10;2.90;;;;;;;;;;5033992;28;20702;-85
2022/09/13 05:27:04;;;;;;;4.05;3.75;;;;;;;;;;5014764;28;20329;-84
2022/09/13 05:29:32;;;;;;;4.55;4.15;;;;;;;;;;5014188;28;20676;-85
2022/09/13 05:31:59;;;;;;;2.90;2.70;;;;;;;;;;5013866;28;20646;-85
2022/09/13 05:34:28;;;;;;;3.13;2.85;;;;;;;;;;5010540;28;20287;-85
2022/09/13 05:36:55;;;;;;;3.63;3.33;;;;;;;;;;5009861;28;20606;-85
2022/09/13 05:39:23;;;;;;;3.58;3.22;;;;;;;;;;5013564;28;20775;-85
2022/09/13 05:41:51;;;;;;;3.20;2.95;;;;;;;;;;5013594;28;20203;-85
2022/09/13 05:44:18;;;;;;;2.95;2.75;;;;;;;;;;5013088;28;20286;-85
2022/09/13 05:46:48;;;;;;;2.78;2.58;;;;;;;;;;5013396;28;20318;-85
2022/09/13 05:49:16;;;;;;;2.65;2.45;;;;;;;;;;5013568;28;20226;-86
2022/09/13 05:51:44;;;;;;;3.05;2.72;;;;;;;;;;5013373;28;20202;-86
2022/09/13 05:54:13;;;;;;;2.97;2.78;;;;;;;;;;5013436;28;20202;-86
2022/09/13 05:56:40;;;;;;;2.83;2.63;;;;;;;;;;4998195;28;20210;-85
2022/09/13 05:59:11;;;;;;;2.38;2.17;;;;;;;;;;4993930;28;20255;-84
2022/09/13 06:01:38;;;;;;;3.63;3.33;;;;;;;;;;4995547;28;20724;-83
2022/09/13 06:04:06;;;;;;;3.47;3.17;;;;;;;;;;4996822;28;20258;-83
2022/09/13 06:06:34;;;;;;;4.18;3.78;;;;;;;;;;5014349;28;20215;-88
2022/09/13 06:09:05;;;;;;;3.92;3.63;;;;;;;;;;5014300;28;20226;-83
2022/09/13 06:11:32;;;;;;;3.38;3.17;;;;;;;;;;5014958;28;20211;-87
2022/09/13 06:14:00;;;;;;;3.60;3.15;;;;;;;;;;5014597;28;20282;-84
2022/09/13 06:16:27;;;;;;;3.28;2.97;;;;;;;;;;5014376;28;20250;-83
2022/09/13 06:18:55;;;;;;;2.97;2.70;;;;;;;;;;5014334;28;20330;-83
2022/09/13 06:21:23;;;;;;;2.30;2.20;;;;;;;;;;5014627;28;20218;-83
2022/09/13 06:23:53;;;;;;;2.60;2.40;;;;;;;;;;5015035;28;20211;-84
2022/09/13 06:26:24;;;;;;;2.92;2.63;;;;;;;;;;5014609;28;20622;-84
2022/09/13 06:28:53;;;;;;;2.75;2.55;;;;;;;;;;5014500;28;20722;-85
2022/09/13 06:31:23;;;;;;;3.65;3.35;;;;;;;;;;5014187;28;20245;-84
2022/09/13 06:33:57;;;;;;;2.90;2.70;;;;;;;;;;5013672;28;20210;-83
2022/09/13 06:36:25;;;;;;;3.45;3.20;;;;;;;;;;5013566;28;20189;-84
2022/09/13 06:38:52;;;;;;;3.30;3.10;;;;;;;;;;5013286;28;20313;-83
2022/09/13 06:41:25;;;;;;;4.30;3.88;;;;;;;;;;5013215;28;20297;-84
2022/09/13 06:43:54;;;;;;;4.45;4.05;;;;;;;;;;5013277;28;20245;-83
2022/09/13 06:46:22;;;;;;;3.50;3.20;;;;;;;;;;5013018;28;20238;-84
2022/09/13 06:48:49;;;;;;;2.47;2.25;;;;;;;;;;5012833;28;20310;-84
2022/09/13 06:51:18;;;;;;;3.83;3.50;;;;;;;;;;5013014;28;20213;-84
2022/09/13 06:53:48;;;;;;;3.22;2.92;;;;;;;;;;5012892;28;20674;-84
2022/09/13 06:56:18;;;;;;;2.85;2.65;;;;;;;;;;5012822;28;20227;-84
2022/09/13 06:58:51;;;;;;;1.95;1.85;;;;;;;;;;5012950;28;20233;-84
2022/09/13 07:01:21;;;;;;;3.00;2.78;;;;;;;;;;5012477;28;20217;-83
2022/09/13 07:03:50;;;;;;;3.25;2.25;;;;;;;;;;5012889;28;20198;-85
2022/09/13 07:06:20;;;;;;;2.53;2.33;;;;;;;;;;5012583;28;20612;-84
2022/09/13 07:08:49;;;;;;;2.35;2.15;;;;;;;;;;5013091;28;20230;-85
2022/09/13 07:11:19;;;;;;;2.33;2.15;;;;;;;;;;5042594;22;20245;-79
2022/09/13 07:13:51;;;;;;;1.88;1.77;;;;;;;;;;5032954;28;20213;-79
2022/09/13 07:16:22;;;;;;;1.90;1.80;;;;;;;;;;5032860;28;20198;-79
2022/09/13 07:18:53;;;;;;;2.63;2.42;;;;;;;;;;5032503;28;20198;-77
2022/09/13 07:21:21;;;;;;;2.88;2.67;;;;;;;;;;5032342;28;20260;-80
2022/09/13 07:23:48;;;;;;;3.05;2.85;;;;;;;;;;5032172;28;20198;-78
2022/09/13 07:26:16;;;;;;;3.00;2.80;;;;;;;;;;5033264;28;20988;-77
2022/09/13 07:28:47;;;;;;;3.13;2.92;;;;;;;;;;5032789;28;20206;-77
2022/09/13 07:31:19;;;;;;;2.17;1.98;;;;;;;;;;5033018;28;20229;-77
2022/09/13 07:33:47;;;;;;;2.33;2.17;;;;;;;;;;5032298;28;20221;-77
2022/09/13 07:36:15;;;;;;;3.50;3.20;;;;;;;;;;5031977;28;20289;-77
2022/09/13 07:38:44;;;;;;;3.38;3.08;;;;;;;;;;5032426;28;20674;-77
2022/09/13 07:41:16;;;;;;;2.60;2.40;;;;;;;;;;5032262;28;20226;-77
2022/09/13 07:43:44;;;;;;;2.58;2.40;;;;;;;;;;5032266;28;20199;-78
2022/09/13 07:46:13;;;;;;;2.15;2.00;;;;;;;;;;5031675;28;20230;-79
2022/09/13 07:48:44;;;;;;;2.40;2.20;;;;;;;;;;5032232;28;20205;-77
2022/09/13 07:51:13;;;;;;;2.95;2.67;;;;;;;;;;5031612;28;20226;-77
2022/09/13 07:53:44;;;;;;;2.63;2.45;;;;;;;;;;5032167;28;20198;-77
2022/09/13 07:56:13;;;;;;;2.42;2.22;;;;;;;;;;5043144;28;20246;-77
2022/09/13 07:58:43;;;;;;;2.85;2.65;;;;;;;;;;5051460;28;20208;-78
2022/09/13 08:01:14;;;;;;;2.97;2.78;;;;;;;;;;5051393;28;20739;-77
2022/09/13 08:03:43;;;;;;;3.08;2.58;;;;;;;;;;5051561;28;20198;-78
2022/09/13 08:06:11;;;;;;;2.83;2.63;;;;;;;;;;5033497;28;20230;-77
2022/09/13 08:08:38;;;;;;;2.70;2.50;;;;;;;;;;5035362;28;20198;-76
2022/09/13 08:11:07;;;;;;;3.15;2.42;;;;;;;;;;5035410;28;20237;-79
2022/09/13 08:13:35;;;;;;;2.47;2.28;;;;;;;;;;5035692;28;20204;-77
2022/09/13 08:16:04;;;;;;;3.05;2.72;;;;;;;;;;5035418;28;20213;-78
2022/09/13 08:18:32;;;;;;;2.47;2.13;;;;;;;;;;5035374;28;20198;-78
2022/09/13 08:21:01;;;;;;;2.58;2.38;;;;;;;;;;5035558;28;20290;-79
2022/09/13 08:23:29;;;;;;;2.92;2.58;;;;;;;;;;5035470;28;20209;-78
2022/09/13 08:26:02;;;;;;;2.45;2.25;;;;;;;;;;5044749;28;20216;-80
2022/09/13 08:28:31;;;;;;;4.38;2.38;;;;;;;;;;5054940;28;20205;-79
2022/09/13 08:31:05;;;;;;;2.25;2.15;;;;;;;;;;5054912;28;20221;-79
2022/09/13 08:33:33;;;;;;;2.50;2.30;;;;;;;;;;5055012;28;20205;-77
2022/09/13 08:36:03;;;;;;;2.55;2.35;;;;;;;;;;5037100;28;20210;-77
2022/09/13 08:38:31;;;;;;;3.40;3.10;;;;;;;;;;5034750;28;20209;-78
2022/09/13 08:41:02;;;;;;;2.60;2.40;;;;;;;;;;5034518;28;20219;-79
2022/09/13 08:43:40;;;;;;;2.35;2.15;;;;;;;;;;5034466;28;20212;-77
2022/09/13 08:46:15;;;;;;;2.30;2.10;;;;;;;;;;5035267;28;20253;-79
2022/09/13 08:48:45;;;;;;;2.50;2.33;;;;;;;;;;5049595;28;20265;-79
2022/09/13 08:51:28;;;;;;;3.38;3.08;;;;;;;;;;5049727;28;20218;-78
2022/09/13 08:53:56;;;;;;;3.45;3.15;;;;;;;;;;5049342;28;20202;-80
2022/09/13 08:56:28;;;;;;;2.85;2.65;;;;;;;;;;5051424;28;20205;-80
2022/09/13 08:59:16;;;;;;;5.35;4.60;;;;;;;;;;5058812;28;20205;-80
2022/09/13 09:01:54;;;;;;;3.08;2.78;;;;;;;;;;5057676;28;20201;-79
2022/09/13 09:04:38;;;;;;;5.50;3.63;;;;;;;;;;5055009;28;20212;-79
2022/09/13 09:07:12;;;;;;;2.60;2.40;;;;;;;;;;5037030;28;20233;-80
2022/09/13 09:09:44;;;;;;;4.13;3.33;;;;;;;;;;5037101;28;20225;-79
2022/09/13 09:12:19;;;;;;;2.70;2.45;;;;;;;;;;5036528;28;20210;-80
2022/09/13 09:14:53;;;;;;;2.60;2.40;;;;;;;;;;5037063;28;20202;-79
2022/09/13 09:17:24;;;;;;;2.65;2.45;;;;;;;;;;5035249;28;20202;-79
2022/09/13 09:19:57;;;;;;;2.72;2.53;;;;;;;;;;5035804;28;20233;-80
2022/09/13 09:22:29;;;;;;;2.88;2.67;;;;;;;;;;5035918;28;20214;-80
2022/09/13 09:24:58;;;;;;;2.63;2.42;;;;;;;;;;5037552;28;20206;-80
2022/09/13 09:27:25;;;;;;;3.20;2.90;;;;;;;;;;5055698;28;20221;-79
2022/09/13 09:29:57;;;;;;;2.85;2.65;;;;;;;;;;5057403;28;20312;-80
2022/09/13 09:32:47;;;;;;;4.07;3.78;;;;;;;;;;5056284;28;20201;-79
2022/09/13 09:35:27;;;;;;;3.13;2.90;;;;;;;;;;5046633;28;20292;-80
2022/09/13 09:38:18;;;;;;;3.40;3.10;;;;;;;;;;5037203;28;20202;-77
2022/09/13 09:40:45;;;;;;;3.00;2.80;;;;;;;;;;5037197;28;20253;-80
2022/09/13 09:43:17;;;;;;;2.58;2.38;;;;;;;;;;5035746;28;20202;-80
2022/09/13 09:45:46;;;;;;;2.70;2.50;;;;;;;;;;5035801;28;20208;-80
2022/09/13 09:48:22;;;;;;;3.00;2.80;;;;;;;;;;5016841;28;20235;-79
2022/09/13 09:50:53;;;;;;;2.17;2.08;;;;;;;;;;5016594;28;20709;-80
2022/09/13 09:53:26;;;;;;;3.30;2.97;;;;;;;;;;5015626;28;20230;-81
2022/09/13 09:55:59;;;;;;;3.13;2.92;;;;;;;;;;5040330;28;20278;-81
2022/09/13 09:58:39;;;;;;;3.03;2.83;;;;;;;;;;5055307;28;20206;-80
2022/09/13 10:01:14;;;;;;;2.88;2.67;;;;;;;;;;5055187;28;20228;-81
2022/09/13 10:03:42;;;;;;;3.22;2.92;;;;;;;;;;5055048;28;20208;-80
2022/09/13 10:06:13;;;;;;;3.35;3.05;;;;;;;;;;5036299;28;20269;-80
2022/09/13 10:08:43;;;;;;;3.03;2.72;;;;;;;;;;5034855;28;20325;-81
2022/09/13 10:11:11;;;;;;;3.40;2.70;;;;;;;;;;5035411;28;20230;-79
2022/09/13 10:13:38;;;;;;;2.70;2.50;;;;;;;;;;5035031;28;20206;-78
2022/09/13 10:16:07;;;;;;;3.20;3.00;;;;;;;;;;5034335;28;20202;-79
2022/09/13 10:18:37;;;;;;;3.03;2.83;;;;;;;;;;5034163;28;20194;-81
2022/09/13 10:21:07;;;;;;;2.90;2.70;;;;;;;;;;5034169;28;20649;-79
2022/09/13 10:23:36;;;;;;;4.15;3.30;;;;;;;;;;5032552;28;20289;-80
2022/09/13 10:26:09;;;;;;;3.55;3.25;;;;;;;;;;5032209;28;20285;-81
2022/09/13 10:28:43;;;;;;;4.22;3.83;;;;;;;;;;5032790;28;20218;-82
2022/09/13 10:31:13;;;;;;;4.80;2.90;;;;;;;;;;5033839;28;20245;-81
2022/09/13 10:33:42;;;;;;;3.00;2.80;;;;;;;;;;5033954;28;20293;-78
2022/09/13 10:36:16;;;;;;;3.97;3.00;;;;;;;;;;5033183;28;20206;-81
2022/09/13 10:38:51;;;;;;;3.30;3.10;;;;;;;;;;5033912;28;20206;-78
2022/09/13 10:41:28;;;;;;;2.80;2.60;;;;;;;;;;5033578;28;20226;-81
2022/09/13 10:44:00;;;;;;;3.20;3.00;;;;;;;;;;5033820;28;20213;-79
2022/09/13 10:46:31;;;;;;;3.13;2.92;;;;;;;;;;5033699;28;20209;-80
2022/09/13 10:48:59;;;;;;;3.50;3.20;;;;;;;;;;5033928;28;20230;-79
2022/09/13 10:51:37;;;;;;;2.80;2.60;;;;;;;;;;5033235;28;20312;-79
2022/09/13 10:54:15;;;;;;;3.33;3.13;;;;;;;;;;5013746;28;20222;-77
2022/09/13 10:56:45;;;;;;;2.70;2.47;;;;;;;;;;5048093;28;20284;-79
2022/09/13 10:59:21;;;;;;;2.67;2.47;;;;;;;;;;5052915;28;20248;-80
2022/09/13 11:02:16;;;;;;;2.70;2.50;;;;;;;;;;5053596;28;20205;-81
2022/09/13 11:05:05;;;;;;;2.60;2.47;;;;;;;;;;5053073;28;20201;-81
2022/09/13 11:07:53;;;;;;;1.88;1.77;;;;;;;;;;5052846;28;20209;-81
2022/09/13 11:10:28;;;;;;;2.28;2.08;;;;;;;;;;5053316;28;20225;-81
2022/09/13 11:13:05;;;;;;;2.33;2.20;;;;;;;;;;5053482;28;20585;-81
2022/09/13 11:15:49;;;;;;;2.58;2.45;;;;;;;;;;5052924;28;20205;-79
2022/09/13 11:18:50;;;;;;;1.95;1.85;;;;;;;;;;5053073;28;20235;-80
2022/09/13 11:21:31;;;;;;;2.10;2.00;;;;;;;;;;5055472;28;20255;-80
2022/09/13 11:24:22;;;;;;;2.03;1.92;;;;;;;;;;5013680;28;20210;-81
2022/09/13 11:27:03;;;;;;;1.60;1.50;;;;;;;;;;5045965;28;20211;-80
2022/09/13 11:30:00;;;;;;;1.73;1.63;;;;;;;;;;5052294;28;20229;-80
2022/09/13 11:32:42;;;;;;;2.70;2.50;;;;;;;;;;5052451;28;20205;-81
2022/09/13 11:35:30;;;;;;;1.80;1.65;;;;;;;;;;5052704;28;20211;-80
2022/09/13 11:38:04;;;;;;;1.80;1.70;;;;;;;;;;5052540;28;20194;-81
2022/09/13 11:40:50;;;;;;;1.70;1.60;;;;;;;;;;5052452;28;20224;-80
2022/09/13 11:43:55;;;;;;;1.85;1.75;;;;;;;;;;5056402;28;20212;-82
2022/09/13 11:46:30;;;;;;;1.85;1.75;;;;;;;;;;5056255;28;20224;-80
2022/09/13 11:49:28;;;;;;;1.65;1.55;;;;;;;;;;5055633;28;20696;-78
2022/09/13 11:52:06;;;;;;;1.55;1.45;;;;;;;;;;5052512;28;20216;-80
2022/09/13 11:54:49;;;;;;;2.35;1.50;;;;;;;;;;5036063;28;20201;-79
2022/09/13 11:57:21;;;;;;;2.20;2.00;;;;;;;;;;5055328;28;20209;-79
2022/09/13 11:59:53;;;;;;;2.20;2.00;;;;;;;;;;5055532;28;20229;-79
2022/09/13 12:02:29;;;;;;;2.42;1.60;;;;;;;;;;5055666;28;20662;-79
2022/09/13 12:05:02;;;;;;;1.48;1.40;;;;;;;;;;5056071;28;20208;-79
2022/09/13 12:07:36;;;;;;;2.78;1.85;;;;;;;;;;5056301;28;20201;-78
2022/09/13 12:10:10;;;;;;;2.20;2.10;;;;;;;;;;5055972;28;20598;-79
2022/09/13 12:12:38;;;;;;;1.85;1.52;;;;;;;;;;5056628;28;20228;-79
2022/09/13 12:15:08;;;;;;;1.40;1.27;;;;;;;;;;5056004;28;20674;-78
2022/09/13 12:17:42;;;;;;;2.00;1.90;;;;;;;;;;5055583;28;20201;-79
2022/09/13 12:20:19;;;;;;;1.55;1.50;;;;;;;;;;5055667;28;20217;-79
2022/09/13 12:22:47;;;;;;;1.80;1.70;;;;;;;;;;5045036;28;20252;-79
2022/09/13 12:25:21;;;;;;;1.35;1.35;;;;;;;;;;5038558;28;20202;-78
2022/09/13 12:27:56;;;;;;;1.77;1.67;;;;;;;;;;5054951;28;20585;-79
2022/09/13 12:30:27;;;;;;;2.15;2.05;;;;;;;;;;5034902;28;20332;-78
2022/09/13 12:32:56;;;;;;;1.60;1.50;;;;;;;;;;5034663;28;20582;-78
2022/09/13 12:35:28;;;;;;;1.80;1.70;;;;;;;;;;5035280;28;20289;-78
2022/09/13 12:38:24;;;;;;;1.80;1.70;;;;;;;;;;5034938;28;20206;-78
2022/09/13 12:41:20;;;;;;;1.50;1.40;;;;;;;;;;5034758;28;20232;-78
2022/09/13 12:44:26;;;;;;;1.63;1.52;;;;;;;;;;5033013;28;20206;-78
2022/09/13 12:47:28;;;;;;;2.72;1.60;;;;;;;;;;5034781;28;20216;-78
2022/09/13 12:50:13;;;;;;;1.70;1.60;;;;;;;;;;5034717;28;20312;-77
2022/09/13 12:52:46;;;;;;;1.20;1.20;;;;;;;;;;5034483;28;20448;-78
2022/09/13 12:55:52;;;;;;;1.95;1.85;;;;;;;;;;5038067;28;20228;-78
2022/09/13 12:58:38;;;;;;;1.65;1.55;;;;;;;;;;5052964;28;20208;-78
2022/09/13 13:01:11;;;;;;;1.73;1.63;;;;;;;;;;5073076;22;20240;-81
2022/09/13 13:03:49;;;;;;;2.13;2.03;;;;;;;;;;5053894;28;20640;-81
2022/09/13 13:06:29;;;;;;;1.85;1.75;;;;;;;;;;5053833;28;20216;-81
2022/09/13 13:08:58;;;;;;;1.73;1.63;;;;;;;;;;5033776;28;20196;-81
2022/09/13 13:11:28;;;;;;;1.30;1.20;;;;;;;;;;5033800;28;20232;-81
2022/09/13 13:13:59;;;;;;;1.52;1.42;;;;;;;;;;5034155;28;20202;-80
2022/09/13 13:16:30;;;;;;;1.45;1.35;;;;;;;;;;5033869;28;20203;-80
2022/09/13 13:18:59;;;;;;;1.27;1.17;;;;;;;;;;5037072;28;20686;-81
2022/09/13 13:21:32;;;;;;;1.77;1.63;;;;;;;;;;5053617;28;20222;-80
2022/09/13 13:24:46;;;;;;;1.45;1.35;;;;;;;;;;5033356;28;20205;-81
2022/09/13 13:27:44;;;;;;;1.15;1.15;;;;;;;;;;5043446;28;20197;-81
2022/09/13 13:30:52;;;;;;;1.10;1.10;;;;;;;;;;4991967;28;20224;-80
2022/09/13 13:33:24;;;;;;;1.52;1.33;;;;;;;;;;5050438;28;20205;-81
2022/09/13 13:35:52;;;;;;;1.40;1.30;;;;;;;;;;5053379;28;20233;-81
2022/09/13 13:38:43;;;;;;;1.50;1.13;;;;;;;;;;5053228;28;20669;-81
2022/09/13 13:41:43;;;;;;;1.05;1.05;;;;;;;;;;5053131;28;20696;-81
2022/09/13 13:45:09;;;;;;;1.10;1.10;;;;;;;;;;5053136;28;20579;-81
2022/09/13 13:48:24;;;;;;;1.00;1.00;;;;;;;;;;5053368;28;20201;-81
2022/09/13 13:51:20;;;;;;;1.00;1.00;;;;;;;;;;5049304;28;20315;-81
2022/09/13 13:53:54;;;;;;;1.60;1.50;;;;;;;;;;5053487;28;20584;-81
2022/09/13 13:56:34;;;;;;;1.13;1.10;;;;;;;;;;5052827;28;20291;-81
2022/09/13 13:59:09;;;;;;;1.60;1.50;;;;;;;;;;5053474;28;20197;-81
2022/09/13 14:01:39;;;;;;;1.65;1.55;;;;;;;;;;5052352;28;20610;-81
2022/09/13 14:04:53;;;;;;;1.27;1.27;;;;;;;;;;5051410;28;20205;-81
2022/09/13 14:07:54;;;;;;;1.20;1.20;;;;;;;;;;5019594;28;20259;-81
2022/09/13 14:10:27;;;;;;;1.48;1.40;;;;;;;;;;5051635;28;20231;-81
2022/09/13 14:13:25;;;;;;;1.40;1.30;;;;;;;;;;5052201;28;20208;-82
2022/09/13 14:16:01;;;;;;;1.20;1.10;;;;;;;;;;5037552;28;20193;-82
2022/09/13 14:18:44;;;;;;;0.90;0.90;;;;;;;;;;5052044;28;20205;-81
2022/09/13 14:21:25;;;;;;;1.25;1.25;;;;;;;;;;5051783;28;20222;-81
2022/09/13 14:24:18;;;;;;;1.17;1.08;;;;;;;;;;5051320;28;20205;-81
2022/09/13 14:26:47;;;;;;;0.90;0.88;;;;;;;;;;5051587;28;20628;-81
2022/09/13 14:29:18;;;;;;;1.08;1.08;;;;;;;;;;5051575;28;20208;-81
2022/09/13 14:31:47;;;;;;;2.03;1.13;;;;;;;;;;5051422;28;20240;-80
2022/09/13 14:34:29;;;;;;;1.02;1.00;;;;;;;;;;5051267;28;20202;-80
2022/09/13 14:36:59;;;;;;;1.20;1.10;;;;;;;;;;5051548;28;20198;-81
2022/09/13 14:39:28;;;;;;;1.15;1.05;;;;;;;;;;5051605;28;20583;-81
2022/09/13 14:42:02;;;;;;;0.85;0.85;;;;;;;;;;5051075;28;20224;-81
2022/09/13 14:44:30;;;;;;;1.10;1.10;;;;;;;;;;5051259;28;20822;-81
2022/09/13 14:47:07;;;;;;;0.80;0.80;;;;;;;;;;5051090;28;20202;-80
2022/09/13 14:49:38;;;;;;;0.90;0.80;;;;;;;;;;5051316;28;20202;-81
2022/09/13 14:52:10;;;;;;;0.98;0.98;;;;;;;;;;5050952;28;20236;-80
2022/09/13 14:54:40;;;;;;;1.48;0.90;;;;;;;;;;5051298;28;20201;-80
2022/09/13 14:57:17;;;;;;;1.83;1.30;;;;;;;;;;5050980;28;20205;-81
2022/09/13 14:59:47;;;;;;;1.17;1.10;;;;;;;;;;5049981;28;20198;-80
2022/09/13 15:02:20;;;;;;;0.90;0.90;;;;;;;;;;5014575;28;1064593;-81
2022/09/13 15:04:51;;;;;;;2.25;1.30;;;;;;;;;;5051138;28;20209;-82
2022/09/13 15:07:27;;;;;;;1.67;1.50;;;;;;;;;;5051579;28;20208;-80
2022/09/13 15:09:59;;;;;;;1.55;1.50;;;;;;;;;;5052401;28;20205;-81
2022/09/13 15:12:29;;;;;;;1.25;1.15;;;;;;;;;;5051917;28;20260;-80
2022/09/13 15:15:33;;;;;;;1.05;1.05;;;;;;;;;;5051653;28;20198;-81
2022/09/13 15:18:02;;;;;;;1.17;1.15;;;;;;;;;;5029007;28;20210;-81
2022/09/13 15:20:44;;;;;;;1.48;1.38;;;;;;;;;;5031297;28;20208;-81
2022/09/13 15:23:15;;;;;;;1.65;1.42;;;;;;;;;;5045735;28;20209;-81
2022/09/13 15:25:50;;;;;;;1.83;1.73;;;;;;;;;;5051730;28;20223;-80